Time,TemperatureF,DewpointF,PressureIn,WindDirection,WindDirectionDegrees,WindSpeedMPH,WindSpeedGustMPH,Humidity,HourlyPrecipIn,Conditions,Clouds,dailyrainin,SoftwareType,DateUTC
2013-09-30 00:02:00,56.1,53.2,30.04,NNE,19,0.0,4.0,90,0.00,,,0.00,Wunderground v.1.15,2013-09-30 04:02:00,
2013-09-30 00:03:00,56.1,53.2,30.04,NNE,19,0.0,4.0,90,0.00,,,0.00,Wunderground v.1.15,2013-09-30 04:03:00,
2013-09-30 00:04:00,56.1,53.2,30.04,NNE,19,0.0,4.0,90,0.00,,,0.00,Wunderground v.1.15,2013-09-30 04:04:00,
2013-09-30 00:05:00,56.1,53.2,30.04,NNE,19,0.0,4.0,90,0.00,,,0.00,Wunderground v.1.15,2013-09-30 04:05:00,
2013-09-30 00:06:00,56.0,53.1,30.04,NNE,19,1.0,4.0,90,0.00,,,0.00,Wunderground v.1.15,2013-09-30 04:06:00,
2013-09-30 00:12:00,55.9,53.3,30.04,NNE,19,1.0,4.0,91,0.00,,,0.00,Wunderground v.1.15,2013-09-30 04:12:00,
2013-09-30 00:17:00,55.8,53.2,30.04,NNE,19,0.0,4.0,91,0.00,,,0.00,Wunderground v.1.15,2013-09-30 04:17:00,
2013-09-30 00:23:00,55.6,53.0,30.04,NNE,19,0.0,4.0,91,0.00,,,0.00,Wunderground v.1.15,2013-09-30 04:23:00,
2013-09-30 00:28:00,55.5,52.9,30.04,NNE,19,0.0,4.0,91,0.00,,,0.00,Wunderground v.1.15,2013-09-30 04:28:00,
2013-09-30 00:34:00,55.4,52.8,30.04,NNE,19,0.0,4.0,91,0.00,,,0.00,Wunderground v.1.15,2013-09-30 04:34:00,
2013-09-30 00:40:00,55.3,52.7,30.04,NNE,19,0.0,4.0,91,0.00,,,0.00,Wunderground v.1.15,2013-09-30 04:40:00,
2013-09-30 00:45:00,55.3,52.7,30.04,NNE,19,0.0,4.0,91,0.00,,,0.00,Wunderground v.1.15,2013-09-30 04:45:00,
2013-09-30 00:51:00,55.2,52.6,30.04,NNE,19,0.0,4.0,91,0.00,,,0.00,Wunderground v.1.15,2013-09-30 04:51:00,
2013-09-30 00:56:00,55.1,52.8,30.04,NNE,19,1.0,4.0,92,0.00,,,0.00,Wunderground v.1.15,2013-09-30 04:56:00,
2013-09-30 01:02:00,55.2,52.9,30.04,NNE,19,1.0,4.0,92,0.00,,,0.00,Wunderground v.1.15,2013-09-30 05:02:00,
2013-09-30 01:07:00,55.1,52.8,30.04,NNE,19,0.0,4.0,92,0.00,,,0.00,Wunderground v.1.15,2013-09-30 05:07:00,
2013-09-30 01:14:00,55.1,52.8,30.04,NNE,19,0.0,4.0,92,0.00,,,0.00,Wunderground v.1.15,2013-09-30 05:14:00,
2013-09-30 01:19:00,55.1,52.8,30.04,NNE,19,1.0,4.0,92,0.00,,,0.00,Wunderground v.1.15,2013-09-30 05:19:00,
2013-09-30 01:25:00,55.0,52.7,30.05,NNE,19,0.0,4.0,92,0.00,,,0.00,Wunderground v.1.15,2013-09-30 05:25:00,
2013-09-30 01:30:00,54.8,52.5,30.05,NNE,19,0.0,4.0,92,0.00,,,0.00,Wunderground v.1.15,2013-09-30 05:30:00,
2013-09-30 01:36:00,54.7,52.4,30.05,NNE,19,1.0,4.0,92,0.00,,,0.00,Wunderground v.1.15,2013-09-30 05:36:00,
2013-09-30 01:41:00,54.5,52.2,30.04,NNE,20,1.0,2.0,92,0.00,,,0.00,Wunderground v.1.15,2013-09-30 05:41:00,
2013-09-30 01:47:00,54.3,52.0,30.04,NNE,20,1.0,4.0,92,0.00,,,0.00,Wunderground v.1.15,2013-09-30 05:47:00,
2013-09-30 01:53:00,54.2,51.9,30.04,NNE,17,0.0,4.0,92,0.00,,,0.00,Wunderground v.1.15,2013-09-30 05:53:00,
2013-09-30 01:58:00,54.0,51.7,30.04,NNE,17,0.0,4.0,92,0.00,,,0.00,Wunderground v.1.15,2013-09-30 05:58:00,
2013-09-30 02:03:00,53.9,51.6,30.04,NNE,17,0.0,4.0,92,0.00,,,0.00,Wunderground v.1.15,2013-09-30 06:03:00,
2013-09-30 02:09:00,53.8,51.5,30.04,NNE,17,1.0,4.0,92,0.00,,,0.00,Wunderground v.1.15,2013-09-30 06:09:00,
2013-09-30 02:15:00,53.8,51.5,30.04,NNE,17,1.0,4.0,92,0.00,,,0.00,Wunderground v.1.15,2013-09-30 06:15:00,
2013-09-30 02:20:00,53.9,51.6,30.04,NNE,17,1.0,1.0,92,0.00,,,0.00,Wunderground v.1.15,2013-09-30 06:20:00,
2013-09-30 02:26:00,53.9,51.6,30.04,NNE,17,0.0,4.0,92,0.00,,,0.00,Wunderground v.1.15,2013-09-30 06:26:00,
2013-09-30 02:31:00,53.8,51.8,30.03,NNE,17,1.0,4.0,93,0.00,,,0.00,Wunderground v.1.15,2013-09-30 06:31:00,
2013-09-30 02:37:00,54.0,52.0,30.03,North,5,1.0,4.0,93,0.00,,,0.00,Wunderground v.1.15,2013-09-30 06:37:00,
2013-09-30 02:43:00,54.2,52.2,30.03,North,355,2.0,4.0,93,0.00,,,0.00,Wunderground v.1.15,2013-09-30 06:43:00,
2013-09-30 02:48:00,54.4,52.4,30.03,NNW,340,2.0,4.0,93,0.00,,,0.00,Wunderground v.1.15,2013-09-30 06:48:00,
2013-09-30 02:54:00,54.6,52.6,30.03,NNW,330,2.0,4.0,93,0.00,,,0.00,Wunderground v.1.15,2013-09-30 06:54:00,
2013-09-30 02:59:00,54.8,52.8,30.03,NW,325,2.0,4.0,93,0.00,,,0.00,Wunderground v.1.15,2013-09-30 06:59:00,
2013-09-30 03:05:00,55.0,53.0,30.03,NNW,327,3.0,4.0,93,0.00,,,0.00,Wunderground v.1.15,2013-09-30 07:05:00,
2013-09-30 03:10:00,55.1,52.8,30.03,NNW,334,3.0,3.0,92,0.00,,,0.00,Wunderground v.1.15,2013-09-30 07:10:00,
2013-09-30 03:16:00,55.2,52.9,30.03,North,349,3.0,4.0,92,0.00,,,0.00,Wunderground v.1.15,2013-09-30 07:16:00,
2013-09-30 03:21:00,55.2,52.9,30.03,NNW,344,3.0,4.0,92,0.00,,,0.00,Wunderground v.1.15,2013-09-30 07:21:00,
2013-09-30 03:27:00,55.2,52.6,30.03,NNW,334,3.0,5.0,91,0.00,,,0.00,Wunderground v.1.15,2013-09-30 07:27:00,
2013-09-30 03:33:00,55.1,52.5,30.03,North,355,3.0,4.0,91,0.00,,,0.00,Wunderground v.1.15,2013-09-30 07:33:00,
2013-09-30 03:38:00,55.0,52.4,30.03,North,360,2.0,4.0,91,0.00,,,0.00,Wunderground v.1.15,2013-09-30 07:38:00,
2013-09-30 03:44:00,54.8,51.9,30.03,NNE,28,2.0,4.0,90,0.00,,,0.00,Wunderground v.1.15,2013-09-30 07:44:00,
2013-09-30 03:51:00,54.5,51.6,30.03,North,9,2.0,4.0,90,0.00,,,0.00,Wunderground v.1.15,2013-09-30 07:51:00,
2013-09-30 03:57:00,54.3,51.4,30.03,North,5,2.0,4.0,90,0.00,,,0.00,Wunderground v.1.15,2013-09-30 07:57:00,
2013-09-30 04:02:00,54.2,51.6,30.03,North,5,1.0,4.0,91,0.00,,,0.00,Wunderground v.1.15,2013-09-30 08:02:00,
2013-09-30 04:08:00,54.3,51.7,30.03,NNW,338,2.0,4.0,91,0.00,,,0.00,Wunderground v.1.15,2013-09-30 08:08:00,
2013-09-30 04:13:00,54.4,52.1,30.03,NNW,343,2.0,4.0,92,0.00,,,0.00,Wunderground v.1.15,2013-09-30 08:13:00,
2013-09-30 04:19:00,54.5,52.2,30.03,NNW,344,2.0,4.0,92,0.00,,,0.00,Wunderground v.1.15,2013-09-30 08:19:00,
2013-09-30 04:24:00,54.5,52.2,30.02,NNW,346,1.0,4.0,92,0.00,,,0.00,Wunderground v.1.15,2013-09-30 08:24:00,
2013-09-30 04:30:00,54.6,52.3,30.03,NNW,336,2.0,2.0,92,0.00,,,0.00,Wunderground v.1.15,2013-09-30 08:30:00,
2013-09-30 04:35:00,54.6,52.3,30.02,NNW,346,2.0,4.0,92,0.00,,,0.00,Wunderground v.1.15,2013-09-30 08:35:00,
2013-09-30 04:41:00,54.6,52.3,30.02,NNW,346,1.0,4.0,92,0.00,,,0.00,Wunderground v.1.15,2013-09-30 08:41:00,
2013-09-30 04:47:00,54.5,52.2,30.02,NNW,343,1.0,4.0,92,0.00,,,0.00,Wunderground v.1.15,2013-09-30 08:47:00,
2013-09-30 04:52:00,54.4,52.1,30.02,NNW,343,1.0,3.0,92,0.00,,,0.00,Wunderground v.1.15,2013-09-30 08:52:00,
2013-09-30 04:58:00,54.5,52.5,30.02,NNW,336,1.0,4.0,93,0.00,,,0.00,Wunderground v.1.15,2013-09-30 08:58:00,
2013-09-30 05:03:00,54.5,52.5,30.02,NNW,329,2.0,4.0,93,0.00,,,0.00,Wunderground v.1.15,2013-09-30 09:03:00,
2013-09-30 05:09:00,54.5,52.5,30.02,NNW,340,3.0,4.0,93,0.00,,,0.00,Wunderground v.1.15,2013-09-30 09:09:00,
2013-09-30 05:14:00,54.5,52.5,30.02,NW,320,3.0,4.0,93,0.00,,,0.00,Wunderground v.1.15,2013-09-30 09:14:00,
2013-09-30 05:20:00,54.6,52.6,30.02,NNW,329,3.0,4.0,93,0.00,,,0.00,Wunderground v.1.15,2013-09-30 09:20:00,
2013-09-30 05:25:00,54.8,52.8,30.02,NW,305,4.0,5.0,93,0.00,,,0.00,Wunderground v.1.15,2013-09-30 09:25:00,
2013-09-30 05:31:00,54.9,52.9,30.02,NNW,327,4.0,5.0,93,0.00,,,0.00,Wunderground v.1.15,2013-09-30 09:31:00,
2013-09-30 05:36:00,54.9,52.6,30.02,NW,323,4.0,5.0,92,0.00,,,0.00,Wunderground v.1.15,2013-09-30 09:36:00,
2013-09-30 05:42:00,54.8,52.5,30.02,NW,323,3.0,5.0,92,0.00,,,0.00,Wunderground v.1.15,2013-09-30 09:42:00,
2013-09-30 05:47:00,54.7,52.4,30.02,NW,315,4.0,5.0,92,0.00,,,0.00,Wunderground v.1.15,2013-09-30 09:47:00,
2013-09-30 05:53:00,54.6,52.3,30.02,NNW,331,4.0,5.0,92,0.00,,,0.00,Wunderground v.1.15,2013-09-30 09:53:00,
2013-09-30 05:58:00,54.4,52.1,30.02,NW,318,4.0,5.0,92,0.00,,,0.00,Wunderground v.1.15,2013-09-30 09:58:00,
2013-09-30 06:04:00,54.2,51.9,30.03,NNW,328,4.0,5.0,92,0.00,,,0.00,Wunderground v.1.15,2013-09-30 10:04:00,
2013-09-30 06:09:00,54.0,51.7,30.03,NNW,340,4.0,6.0,92,0.00,,,0.00,Wunderground v.1.15,2013-09-30 10:09:00,
2013-09-30 06:15:00,53.8,51.5,30.03,North,355,3.0,5.0,92,0.00,,,0.00,Wunderground v.1.15,2013-09-30 10:15:00,
2013-09-30 06:20:00,53.6,51.3,30.03,NNW,339,3.0,4.0,92,0.00,,,0.00,Wunderground v.1.15,2013-09-30 10:20:00,
2013-09-30 06:26:00,53.4,51.4,30.03,NNE,21,4.0,6.0,93,0.00,,,0.00,Wunderground v.1.15,2013-09-30 10:26:00,
2013-09-30 06:31:00,53.2,51.2,30.03,NE,48,3.0,5.0,93,0.00,,,0.00,Wunderground v.1.15,2013-09-30 10:31:00,
2013-09-30 06:37:00,53.0,51.0,30.03,NNE,30,3.0,5.0,93,0.00,,,0.00,Wunderground v.1.15,2013-09-30 10:37:00,
2013-09-30 06:42:00,52.8,50.8,30.03,North,351,3.0,4.0,93,0.00,,,0.00,Wunderground v.1.15,2013-09-30 10:42:00,
2013-09-30 06:48:00,52.8,50.8,30.03,NNE,28,3.0,5.0,93,0.00,,,0.00,Wunderground v.1.15,2013-09-30 10:48:00,
2013-09-30 06:53:00,53.0,51.3,30.03,North,360,4.0,5.0,94,0.00,,,0.00,Wunderground v.1.15,2013-09-30 10:53:00,
2013-09-30 06:58:00,53.2,51.5,30.03,North,355,4.0,5.0,94,0.00,,,0.00,Wunderground v.1.15,2013-09-30 10:58:00,
2013-09-30 07:04:00,53.4,51.7,30.04,NNW,341,3.0,5.0,94,0.00,,,0.00,Wunderground v.1.15,2013-09-30 11:04:00,
2013-09-30 07:10:00,53.5,51.8,30.04,NNW,327,3.0,3.0,94,0.00,,,0.00,Wunderground v.1.15,2013-09-30 11:10:00,
2013-09-30 07:16:00,53.8,52.1,30.04,NNW,340,4.0,4.0,94,0.00,,,0.00,Wunderground v.1.15,2013-09-30 11:16:00,
2013-09-30 07:21:00,54.0,52.3,30.03,NW,304,3.0,4.0,94,0.00,,,0.00,Wunderground v.1.15,2013-09-30 11:21:00,
2013-09-30 07:27:00,54.1,52.4,30.03,NNW,327,4.0,6.0,94,0.00,,,0.00,Wunderground v.1.15,2013-09-30 11:27:00,
2013-09-30 07:32:00,54.1,52.4,30.03,NW,321,4.0,5.0,94,0.00,,,0.00,Wunderground v.1.15,2013-09-30 11:32:00,
2013-09-30 07:38:00,54.2,52.5,30.04,NW,326,4.0,5.0,94,0.00,,,0.00,Wunderground v.1.15,2013-09-30 11:38:00,
2013-09-30 07:43:00,54.3,52.6,30.04,NW,317,4.0,6.0,94,0.00,,,0.00,Wunderground v.1.15,2013-09-30 11:43:00,
2013-09-30 07:49:00,54.6,52.9,30.04,NW,318,4.0,6.0,94,0.00,,,0.00,Wunderground v.1.15,2013-09-30 11:49:00,
2013-09-30 07:54:00,54.8,53.1,30.04,NW,324,4.0,5.0,94,0.00,,,0.00,Wunderground v.1.15,2013-09-30 11:54:00,
2013-09-30 08:00:00,54.9,53.2,30.04,North,351,4.0,7.0,94,0.00,,,0.00,Wunderground v.1.15,2013-09-30 12:00:00,
2013-09-30 08:05:00,55.1,53.4,30.04,NW,317,5.0,7.0,94,0.00,,,0.00,Wunderground v.1.15,2013-09-30 12:05:00,
2013-09-30 08:11:00,55.2,53.5,30.04,NNW,344,5.0,6.0,94,0.00,,,0.00,Wunderground v.1.15,2013-09-30 12:11:00,
2013-09-30 08:16:00,55.4,53.7,30.04,NNW,329,5.0,8.0,94,0.00,,,0.00,Wunderground v.1.15,2013-09-30 12:16:00,
2013-09-30 08:22:00,55.6,53.9,30.04,North,360,4.0,5.0,94,0.00,,,0.00,Wunderground v.1.15,2013-09-30 12:22:00,
2013-09-30 08:28:00,56.0,54.3,30.04,North,5,4.0,7.0,94,0.00,,,0.00,Wunderground v.1.15,2013-09-30 12:28:00,
2013-09-30 08:33:00,56.3,54.6,30.05,NW,316,4.0,6.0,94,0.00,,,0.00,Wunderground v.1.15,2013-09-30 12:33:00,
2013-09-30 08:38:00,57.0,55.3,30.05,NNW,333,4.0,6.0,94,0.00,,,0.00,Wunderground v.1.15,2013-09-30 12:38:00,
2013-09-30 08:44:00,57.8,55.8,30.05,NNW,336,3.0,7.0,93,0.00,,,0.00,Wunderground v.1.15,2013-09-30 12:44:00,
2013-09-30 08:50:00,58.8,56.5,30.05,NNW,338,5.0,5.0,92,0.00,,,0.00,Wunderground v.1.15,2013-09-30 12:50:00,
2013-09-30 08:55:00,59.5,57.2,30.04,NNW,333,5.0,6.0,92,0.00,,,0.00,Wunderground v.1.15,2013-09-30 12:55:00,
2013-09-30 09:00:00,60.0,57.1,30.05,NW,314,5.0,5.0,90,0.00,,,0.00,Wunderground v.1.15,2013-09-30 13:00:00,
2013-09-30 09:06:00,60.8,57.5,30.05,NNW,346,5.0,6.0,89,0.00,,,0.00,Wunderground v.1.15,2013-09-30 13:06:00,
2013-09-30 09:11:00,61.3,57.7,30.05,NNE,19,5.0,5.0,88,0.00,,,0.00,Wunderground v.1.15,2013-09-30 13:11:00,
2013-09-30 09:17:00,62.0,58.1,30.05,North,355,6.0,10.0,87,0.00,,,0.00,Wunderground v.1.15,2013-09-30 13:17:00,
2013-09-30 09:23:00,62.4,58.2,30.05,North,355,7.0,8.0,86,0.00,,,0.00,Wunderground v.1.15,2013-09-30 13:23:00,
2013-09-30 09:29:00,62.7,57.8,30.05,North,355,7.0,8.0,84,0.00,,,0.00,Wunderground v.1.15,2013-09-30 13:29:00,
2013-09-30 09:35:00,62.5,57.9,30.05,NNW,344,6.0,9.0,85,0.00,,,0.00,Wunderground v.1.15,2013-09-30 13:35:00,
2013-09-30 09:40:00,62.6,58.0,30.05,NE,36,5.0,5.0,85,0.00,,,0.00,Wunderground v.1.15,2013-09-30 13:40:00,
2013-09-30 09:46:00,62.8,58.2,30.05,North,350,5.0,9.0,85,0.00,,,0.00,Wunderground v.1.15,2013-09-30 13:46:00,
2013-09-30 09:51:00,62.9,58.3,30.05,NW,325,6.0,8.0,85,0.00,,,0.00,Wunderground v.1.15,2013-09-30 13:51:00,
2013-09-30 09:57:00,63.1,58.2,30.05,NNE,18,6.0,9.0,84,0.00,,,0.00,Wunderground v.1.15,2013-09-30 13:57:00,
2013-09-30 10:02:00,63.2,58.6,30.05,North,350,7.0,9.0,85,0.00,,,0.00,Wunderground v.1.15,2013-09-30 14:02:00,
2013-09-30 10:08:00,63.5,58.6,30.05,NE,35,6.0,9.0,84,0.00,,,0.00,Wunderground v.1.15,2013-09-30 14:08:00,
2013-09-30 10:13:00,63.7,58.4,30.05,North,11,6.0,12.0,83,0.00,,,0.00,Wunderground v.1.15,2013-09-30 14:13:00,
2013-09-30 10:18:00,64.0,59.1,30.05,NNW,344,7.0,12.0,84,0.00,,,0.00,Wunderground v.1.15,2013-09-30 14:18:00,
2013-09-30 10:24:00,64.3,58.7,30.05,NNE,26,6.0,9.0,82,0.00,,,0.00,Wunderground v.1.15,2013-09-30 14:24:00,
2013-09-30 10:29:00,64.6,59.0,30.05,NNE,13,7.0,12.0,82,0.00,,,0.00,Wunderground v.1.15,2013-09-30 14:29:00,
2013-09-30 10:35:00,64.9,59.3,30.05,North,360,7.0,9.0,82,0.00,,,0.00,Wunderground v.1.15,2013-09-30 14:35:00,
2013-09-30 10:40:00,65.2,58.9,30.05,NNE,19,7.0,9.0,80,0.00,,,0.00,Wunderground v.1.15,2013-09-30 14:40:00,
2013-09-30 10:46:00,65.7,59.0,30.05,North,355,8.0,12.0,79,0.00,,,0.00,Wunderground v.1.15,2013-09-30 14:46:00,
2013-09-30 10:51:00,65.9,58.8,30.05,NNW,346,9.0,11.0,78,0.00,,,0.00,Wunderground v.1.15,2013-09-30 14:51:00,
2013-09-30 10:57:00,66.2,59.1,30.05,NNW,345,8.0,11.0,78,0.00,,,0.00,Wunderground v.1.15,2013-09-30 14:57:00,
2013-09-30 11:02:00,66.3,58.9,30.05,North,355,7.0,9.0,77,0.00,,,0.00,Wunderground v.1.15,2013-09-30 15:02:00,
2013-09-30 11:08:00,66.5,59.1,30.05,North,360,7.0,12.0,77,0.00,,,0.00,Wunderground v.1.15,2013-09-30 15:08:00,
2013-09-30 11:13:00,66.6,58.8,30.04,NNW,345,7.0,10.0,76,0.00,,,0.00,Wunderground v.1.15,2013-09-30 15:13:00,
2013-09-30 11:19:00,67.0,59.2,30.04,NNW,348,6.0,10.0,76,0.00,,,0.00,Wunderground v.1.15,2013-09-30 15:19:00,
2013-09-30 11:24:00,67.7,59.1,30.04,North,11,6.0,12.0,74,0.00,,,0.00,Wunderground v.1.15,2013-09-30 15:24:00,
2013-09-30 11:30:00,68.1,59.1,30.04,North,5,7.0,12.0,73,0.00,,,0.00,Wunderground v.1.15,2013-09-30 15:30:00,
2013-09-30 11:36:00,68.6,59.2,30.04,NE,53,6.0,12.0,72,0.00,,,0.00,Wunderground v.1.15,2013-09-30 15:36:00,
2013-09-30 11:41:00,69.2,59.4,30.04,NNE,17,5.0,7.0,71,0.00,,,0.00,Wunderground v.1.15,2013-09-30 15:41:00,
2013-09-30 11:47:00,69.5,59.3,30.03,North,355,6.0,13.0,70,0.00,,,0.00,Wunderground v.1.15,2013-09-30 15:47:00,
2013-09-30 11:52:00,69.7,59.1,30.03,North,355,5.0,9.0,69,0.00,,,0.00,Wunderground v.1.15,2013-09-30 15:52:00,
2013-09-30 11:58:00,69.9,58.9,30.03,NE,46,5.0,9.0,68,0.00,,,0.00,Wunderground v.1.15,2013-09-30 15:58:00,
2013-09-30 12:03:00,70.2,58.3,30.03,North,9,5.0,8.0,66,0.00,,,0.00,Wunderground v.1.15,2013-09-30 16:03:00,
2013-09-30 12:09:00,70.5,58.6,30.02,NNE,13,5.0,9.0,66,0.00,,,0.00,Wunderground v.1.15,2013-09-30 16:09:00,
2013-09-30 12:14:00,71.0,59.1,30.02,NE,38,5.0,6.0,66,0.00,,,0.00,Wunderground v.1.15,2013-09-30 16:14:00,
2013-09-30 12:20:00,71.2,58.4,30.02,NE,36,5.0,6.0,64,0.00,,,0.00,Wunderground v.1.15,2013-09-30 16:20:00,
2013-09-30 12:26:00,71.1,58.7,30.02,WNW,302,6.0,10.0,65,0.00,,,0.00,Wunderground v.1.15,2013-09-30 16:26:00,
2013-09-30 12:32:00,71.4,59.4,30.02,NNE,24,5.0,5.0,66,0.00,,,0.00,Wunderground v.1.15,2013-09-30 16:32:00,
2013-09-30 12:37:00,71.9,59.1,30.02,NNE,25,5.0,8.0,64,0.00,,,0.00,Wunderground v.1.15,2013-09-30 16:37:00,
2013-09-30 12:43:00,71.9,59.5,30.01,ENE,78,5.0,6.0,65,0.00,,,0.00,Wunderground v.1.15,2013-09-30 16:43:00,
2013-09-30 12:48:00,72.0,58.3,30.01,ENE,67,6.0,7.0,62,0.00,,,0.00,Wunderground v.1.15,2013-09-30 16:48:00,
2013-09-30 12:54:00,72.0,58.3,30.01,NNW,347,5.0,5.0,62,0.00,,,0.00,Wunderground v.1.15,2013-09-30 16:54:00,
2013-09-30 12:59:00,72.2,58.5,30.01,ENE,78,4.0,9.0,62,0.00,,,0.00,Wunderground v.1.15,2013-09-30 16:59:00,
2013-09-30 13:05:00,71.8,58.1,30.01,ENE,72,5.0,8.0,62,0.00,,,0.00,Wunderground v.1.15,2013-09-30 17:05:00,
2013-09-30 13:10:00,71.4,58.6,30.01,NE,44,5.0,5.0,64,0.00,,,0.00,Wunderground v.1.15,2013-09-30 17:10:00,
2013-09-30 13:16:00,71.6,58.8,30.01,NE,52,4.0,6.0,64,0.00,,,0.00,Wunderground v.1.15,2013-09-30 17:16:00,
2013-09-30 13:21:00,71.5,60.0,30.00,East,92,5.0,7.0,67,0.00,,,0.00,Wunderground v.1.15,2013-09-30 17:21:00,
2013-09-30 13:27:00,70.6,59.9,30.00,ENE,76,6.0,11.0,69,0.00,,,0.00,Wunderground v.1.15,2013-09-30 17:27:00,
2013-09-30 13:33:00,69.9,59.7,30.00,East,81,7.0,11.0,70,0.00,,,0.00,Wunderground v.1.15,2013-09-30 17:33:00,
2013-09-30 13:38:00,69.5,59.7,30.00,East,96,8.0,11.0,71,0.00,,,0.00,Wunderground v.1.15,2013-09-30 17:38:00,
2013-09-30 13:43:00,69.6,60.2,30.00,East,90,8.0,14.0,72,0.00,,,0.00,Wunderground v.1.15,2013-09-30 17:43:00,
2013-09-30 13:49:00,69.7,59.5,30.00,East,89,8.0,14.0,70,0.00,,,0.00,Wunderground v.1.15,2013-09-30 17:49:00,
2013-09-30 13:55:00,69.9,59.3,30.00,East,94,9.0,12.0,69,0.00,,,0.00,Wunderground v.1.15,2013-09-30 17:55:00,
2013-09-30 14:00:00,69.5,59.3,30.00,East,88,10.0,10.0,70,0.00,,,0.00,Wunderground v.1.15,2013-09-30 18:00:00,
2013-09-30 14:06:00,68.6,59.2,30.00,ESE,106,9.0,11.0,72,0.00,,,0.00,Wunderground v.1.15,2013-09-30 18:06:00,
2013-09-30 14:11:00,68.1,59.1,30.00,ENE,69,8.0,11.0,73,0.00,,,0.00,Wunderground v.1.15,2013-09-30 18:11:00,
2013-09-30 14:17:00,68.3,58.9,30.00,ESE,120,7.0,11.0,72,0.00,,,0.00,Wunderground v.1.15,2013-09-30 18:17:00,
2013-09-30 14:22:00,69.1,59.3,30.00,East,87,7.0,8.0,71,0.00,,,0.00,Wunderground v.1.15,2013-09-30 18:22:00,
2013-09-30 14:28:00,69.6,58.2,30.00,ENE,59,7.0,8.0,67,0.00,,,0.00,Wunderground v.1.15,2013-09-30 18:28:00,
2013-09-30 14:34:00,69.8,59.6,29.99,ESE,111,7.0,14.0,70,0.00,,,0.00,Wunderground v.1.15,2013-09-30 18:34:00,
2013-09-30 14:40:00,69.4,59.2,29.99,ENE,65,8.0,8.0,70,0.00,,,0.00,Wunderground v.1.15,2013-09-30 18:40:00,
2013-09-30 14:45:00,68.8,59.4,29.99,East,80,8.0,12.0,72,0.00,,,0.00,Wunderground v.1.15,2013-09-30 18:45:00,
2013-09-30 14:51:00,68.0,59.4,29.99,ESE,102,8.0,11.0,74,0.00,,,0.00,Wunderground v.1.15,2013-09-30 18:51:00,
2013-09-30 14:56:00,68.4,59.4,29.99,East,90,8.0,11.0,73,0.00,,,0.00,Wunderground v.1.15,2013-09-30 18:56:00,
2013-09-30 15:02:00,68.4,59.4,29.99,ESE,102,7.0,8.0,73,0.00,,,0.00,Wunderground v.1.15,2013-09-30 19:02:00,
2013-09-30 15:07:00,68.4,58.6,29.99,ESE,109,7.0,9.0,71,0.00,,,0.00,Wunderground v.1.15,2013-09-30 19:07:00,
2013-09-30 15:13:00,68.5,58.3,29.99,East,88,8.0,8.0,70,0.00,,,0.00,Wunderground v.1.15,2013-09-30 19:13:00,
2013-09-30 15:18:00,67.9,58.1,29.99,East,96,7.0,11.0,71,0.00,,,0.00,Wunderground v.1.15,2013-09-30 19:18:00,
2013-09-30 15:24:00,68.0,58.6,29.99,ENE,67,7.0,8.0,72,0.00,,,0.00,Wunderground v.1.15,2013-09-30 19:24:00,
2013-09-30 15:29:00,68.4,58.6,29.99,East,94,7.0,11.0,71,0.00,,,0.00,Wunderground v.1.15,2013-09-30 19:29:00,
2013-09-30 15:35:00,68.6,58.8,29.99,ENE,77,6.0,9.0,71,0.00,,,0.00,Wunderground v.1.15,2013-09-30 19:35:00,
2013-09-30 15:40:00,68.4,59.0,29.99,ENE,78,6.0,6.0,72,0.00,,,0.00,Wunderground v.1.15,2013-09-30 19:40:00,
2013-09-30 15:46:00,67.7,58.7,29.99,East,86,7.0,11.0,73,0.00,,,0.00,Wunderground v.1.15,2013-09-30 19:46:00,
2013-09-30 15:52:00,67.5,58.2,29.99,ESE,111,6.0,8.0,72,0.00,,,0.00,Wunderground v.1.15,2013-09-30 19:52:00,
2013-09-30 15:57:00,67.7,58.7,29.99,ENE,69,7.0,9.0,73,0.00,,,0.00,Wunderground v.1.15,2013-09-30 19:57:00,
2013-09-30 16:03:00,67.8,58.8,29.99,East,93,8.0,10.0,73,0.00,,,0.00,Wunderground v.1.15,2013-09-30 20:03:00,
2013-09-30 16:08:00,67.9,59.3,29.99,ENE,65,7.0,10.0,74,0.00,,,0.00,Wunderground v.1.15,2013-09-30 20:08:00,
2013-09-30 16:14:00,68.1,59.9,29.99,East,85,6.0,8.0,75,0.00,,,0.00,Wunderground v.1.15,2013-09-30 20:14:00,
2013-09-30 16:19:00,68.0,59.4,29.99,East,96,7.0,12.0,74,0.00,,,0.00,Wunderground v.1.15,2013-09-30 20:19:00,
2013-09-30 16:25:00,67.9,59.3,29.99,East,83,8.0,8.0,74,0.00,,,0.00,Wunderground v.1.15,2013-09-30 20:25:00,
2013-09-30 16:30:00,67.7,59.5,29.99,ENE,74,7.0,7.0,75,0.00,,,0.00,Wunderground v.1.15,2013-09-30 20:30:00,
2013-09-30 16:35:00,67.4,59.2,29.98,East,84,6.0,10.0,75,0.00,,,0.00,Wunderground v.1.15,2013-09-30 20:35:00,
2013-09-30 16:41:00,67.2,59.4,29.98,ESE,103,7.0,7.0,76,0.00,,,0.00,Wunderground v.1.15,2013-09-30 20:41:00,
2013-09-30 16:47:00,67.1,59.3,29.98,NE,46,7.0,10.0,76,0.00,,,0.00,Wunderground v.1.15,2013-09-30 20:47:00,
2013-09-30 16:53:00,67.2,59.7,29.98,ENE,65,6.0,7.0,77,0.00,,,0.00,Wunderground v.1.15,2013-09-30 20:53:00,
2013-09-30 16:59:00,67.0,59.9,29.99,ENE,69,7.0,10.0,78,0.00,,,0.00,Wunderground v.1.15,2013-09-30 20:59:00,
2013-09-30 17:04:00,66.7,59.3,29.98,East,99,7.0,8.0,77,0.00,,,0.00,Wunderground v.1.15,2013-09-30 21:04:00,
2013-09-30 17:10:00,66.7,59.6,29.98,East,94,6.0,7.0,78,0.00,,,0.00,Wunderground v.1.15,2013-09-30 21:10:00,
2013-09-30 17:15:00,66.7,59.3,29.99,East,84,6.0,7.0,77,0.00,,,0.00,Wunderground v.1.15,2013-09-30 21:15:00,
2013-09-30 17:21:00,66.6,59.5,29.99,East,85,5.0,6.0,78,0.00,,,0.00,Wunderground v.1.15,2013-09-30 21:21:00,
2013-09-30 17:26:00,66.4,59.3,29.99,ENE,77,5.0,8.0,78,0.00,,,0.00,Wunderground v.1.15,2013-09-30 21:26:00,
2013-09-30 17:32:00,66.3,59.2,29.99,ESE,105,5.0,6.0,78,0.00,,,0.00,Wunderground v.1.15,2013-09-30 21:32:00,
2013-09-30 17:37:00,66.1,59.4,29.99,ENE,78,5.0,6.0,79,0.00,,,0.00,Wunderground v.1.15,2013-09-30 21:37:00,
2013-09-30 17:43:00,66.1,59.0,29.99,ESE,108,4.0,6.0,78,0.00,,,0.00,Wunderground v.1.15,2013-09-30 21:43:00,
2013-09-30 17:48:00,66.0,59.3,29.99,ENE,70,4.0,6.0,79,0.00,,,0.00,Wunderground v.1.15,2013-09-30 21:48:00,
2013-09-30 17:54:00,65.9,59.6,29.99,East,92,4.0,6.0,80,0.00,,,0.00,Wunderground v.1.15,2013-09-30 21:54:00,
2013-09-30 17:59:00,65.8,59.5,29.99,East,81,3.0,6.0,80,0.00,,,0.00,Wunderground v.1.15,2013-09-30 21:59:00,
2013-09-30 18:05:00,65.7,59.0,29.99,ENE,74,3.0,5.0,79,0.00,,,0.00,Wunderground v.1.15,2013-09-30 22:05:00,
2013-09-30 18:11:00,65.6,59.3,29.99,East,80,3.0,4.0,80,0.00,,,0.00,Wunderground v.1.15,2013-09-30 22:11:00,
2013-09-30 18:16:00,65.4,59.4,29.99,East,80,3.0,4.0,81,0.00,,,0.00,Wunderground v.1.15,2013-09-30 22:16:00,
2013-09-30 18:22:00,65.2,58.9,29.99,ESE,111,3.0,5.0,80,0.00,,,0.00,Wunderground v.1.15,2013-09-30 22:22:00,
2013-09-30 18:27:00,65.1,58.8,29.99,ESE,111,3.0,5.0,80,0.00,,,0.00,Wunderground v.1.15,2013-09-30 22:27:00,
2013-09-30 18:33:00,65.0,58.7,29.99,ESE,109,2.0,4.0,80,0.00,,,0.00,Wunderground v.1.15,2013-09-30 22:33:00,
2013-09-30 18:38:00,64.8,58.8,29.99,ESE,109,1.0,4.0,81,0.00,,,0.00,Wunderground v.1.15,2013-09-30 22:38:00,
2013-09-30 18:44:00,64.7,58.7,29.99,ESE,107,1.0,4.0,81,0.00,,,0.00,Wunderground v.1.15,2013-09-30 22:44:00,
2013-09-30 18:49:00,64.5,58.5,29.99,ESE,107,1.0,4.0,81,0.00,,,0.00,Wunderground v.1.15,2013-09-30 22:49:00,
2013-09-30 18:55:00,64.3,58.7,29.99,ESE,105,1.0,4.0,82,0.00,,,0.00,Wunderground v.1.15,2013-09-30 22:55:00,
2013-09-30 19:01:00,64.0,58.4,29.99,ESE,105,1.0,4.0,82,0.00,,,0.00,Wunderground v.1.15,2013-09-30 23:01:00,
2013-09-30 19:06:00,63.9,58.3,29.99,ESE,105,1.0,4.0,82,0.00,,,0.00,Wunderground v.1.15,2013-09-30 23:06:00,
2013-09-30 19:12:00,63.6,58.3,29.99,ESE,105,0.0,4.0,83,0.00,,,0.00,Wunderground v.1.15,2013-09-30 23:12:00,
2013-09-30 19:17:00,63.3,58.0,29.99,ESE,105,0.0,4.0,83,0.00,,,0.00,Wunderground v.1.15,2013-09-30 23:17:00,
2013-09-30 19:23:00,63.1,57.9,29.99,ESE,105,0.0,4.0,83,0.00,,,0.00,Wunderground v.1.15,2013-09-30 23:23:00,
2013-09-30 19:28:00,62.9,57.7,29.99,ESE,105,0.0,4.0,83,0.00,,,0.00,Wunderground v.1.15,2013-09-30 23:28:00,
2013-09-30 19:34:00,62.6,57.7,29.99,ESE,105,0.0,0.0,84,0.00,,,0.00,Wunderground v.1.15,2013-09-30 23:34:00,
2013-09-30 19:39:00,62.4,57.5,29.99,ESE,105,0.0,1.0,84,0.00,,,0.00,Wunderground v.1.15,2013-09-30 23:39:00,
2013-09-30 19:45:00,62.2,57.6,29.99,ESE,105,0.0,0.0,85,0.00,,,0.00,Wunderground v.1.15,2013-09-30 23:45:00,
2013-09-30 19:51:00,62.0,57.4,29.99,ESE,105,0.0,0.0,85,0.00,,,0.00,Wunderground v.1.15,2013-09-30 23:51:00,
2013-09-30 19:57:00,61.7,57.1,29.99,ESE,105,0.0,0.0,85,0.00,,,0.00,Wunderground v.1.15,2013-09-30 23:57:00,
2013-09-30 20:03:00,61.5,57.3,29.99,ESE,105,0.0,5.0,86,0.00,,,0.00,Wunderground v.1.15,2013-10-01 00:03:00,
2013-09-30 20:09:00,61.3,57.1,30.00,ESE,105,0.0,5.0,86,0.00,,,0.00,Wunderground v.1.15,2013-10-01 00:09:00,
2013-09-30 20:14:00,61.2,57.3,30.00,ESE,105,0.0,5.0,87,0.00,,,0.00,Wunderground v.1.15,2013-10-01 00:14:00,
2013-09-30 20:20:00,61.1,57.2,30.00,ESE,105,0.0,5.0,87,0.00,,,0.00,Wunderground v.1.15,2013-10-01 00:20:00,
2013-09-30 20:26:00,60.9,57.0,30.00,ESE,106,0.0,5.0,87,0.00,,,0.00,Wunderground v.1.15,2013-10-01 00:26:00,
2013-09-30 20:32:00,60.8,57.2,30.00,ESE,106,0.0,5.0,88,0.00,,,0.00,Wunderground v.1.15,2013-10-01 00:32:00,
2013-09-30 20:37:00,60.8,57.2,30.00,ESE,106,0.0,5.0,88,0.00,,,0.00,Wunderground v.1.15,2013-10-01 00:37:00,
2013-09-30 20:43:00,60.7,57.1,30.00,ESE,106,0.0,5.0,88,0.00,,,0.00,Wunderground v.1.15,2013-10-01 00:43:00,
2013-09-30 20:49:00,60.8,57.2,30.00,ESE,106,0.0,5.0,88,0.00,,,0.00,Wunderground v.1.15,2013-10-01 00:49:00,
2013-09-30 20:55:00,60.7,57.1,30.00,ESE,106,0.0,5.0,88,0.00,,,0.00,Wunderground v.1.15,2013-10-01 00:55:00,
2013-09-30 21:00:00,60.6,57.0,30.01,ESE,106,0.0,5.0,88,0.00,,,0.00,Wunderground v.1.15,2013-10-01 01:00:00,
2013-09-30 21:06:00,60.4,56.8,30.01,ESE,106,0.0,5.0,88,0.00,,,0.00,Wunderground v.1.15,2013-10-01 01:06:00,
2013-09-30 21:12:00,60.2,56.6,30.01,ESE,106,0.0,5.0,88,0.00,,,0.00,Wunderground v.1.15,2013-10-01 01:12:00,
2013-09-30 21:18:00,60.0,56.4,30.01,ESE,106,0.0,5.0,88,0.00,,,0.00,Wunderground v.1.15,2013-10-01 01:18:00,
2013-09-30 21:24:00,59.9,56.6,30.01,ESE,106,0.0,5.0,89,0.00,,,0.00,Wunderground v.1.15,2013-10-01 01:24:00,
2013-09-30 21:29:00,59.9,56.6,30.01,ESE,106,0.0,5.0,89,0.00,,,0.00,Wunderground v.1.15,2013-10-01 01:29:00,
2013-09-30 21:35:00,60.1,57.2,30.01,SE,142,1.0,5.0,90,0.00,,,0.00,Wunderground v.1.15,2013-10-01 01:35:00,
2013-09-30 21:41:00,60.3,57.4,30.01,SE,142,1.0,5.0,90,0.00,,,0.00,Wunderground v.1.15,2013-10-01 01:41:00,
2013-09-30 21:47:00,60.5,57.6,30.01,SE,142,1.0,5.0,90,0.00,,,0.00,Wunderground v.1.15,2013-10-01 01:47:00,
2013-09-30 21:53:00,60.7,57.7,30.01,SSE,152,1.0,5.0,90,0.00,,,0.00,Wunderground v.1.15,2013-10-01 01:53:00,
2013-09-30 21:59:00,60.9,57.9,30.01,SSE,165,1.0,5.0,90,0.00,,,0.00,Wunderground v.1.15,2013-10-01 01:59:00,
2013-09-30 22:04:00,61.0,58.0,30.01,SSE,165,1.0,5.0,90,0.00,,,0.00,Wunderground v.1.15,2013-10-01 02:04:00,
2013-09-30 22:10:00,61.1,58.1,30.01,South,170,1.0,5.0,90,0.00,,,0.00,Wunderground v.1.15,2013-10-01 02:10:00,
2013-09-30 22:16:00,61.2,58.2,30.01,South,169,1.0,5.0,90,0.00,,,0.00,Wunderground v.1.15,2013-10-01 02:16:00,
2013-09-30 22:22:00,61.3,58.0,30.01,South,169,1.0,5.0,89,0.00,,,0.00,Wunderground v.1.15,2013-10-01 02:22:00,
2013-09-30 22:28:00,61.4,58.1,30.01,South,179,2.0,5.0,89,0.00,,,0.00,Wunderground v.1.15,2013-10-01 02:28:00,
2013-09-30 22:34:00,61.5,58.2,30.01,South,179,2.0,5.0,89,0.00,,,0.00,Wunderground v.1.15,2013-10-01 02:34:00,
2013-09-30 22:40:00,61.5,58.2,30.01,South,181,2.0,5.0,89,0.00,,,0.00,Wunderground v.1.15,2013-10-01 02:40:00,
2013-09-30 22:45:00,61.4,57.8,30.01,South,181,1.0,5.0,88,0.00,,,0.00,Wunderground v.1.15,2013-10-01 02:45:00,
2013-09-30 22:51:00,61.4,57.8,30.01,South,181,0.0,5.0,88,0.00,,,0.00,Wunderground v.1.15,2013-10-01 02:51:00,
2013-09-30 22:57:00,61.2,57.6,30.01,South,181,0.0,5.0,88,0.00,,,0.00,Wunderground v.1.15,2013-10-01 02:57:00,
2013-09-30 23:03:00,61.1,57.5,30.01,South,181,0.0,5.0,88,0.00,,,0.00,Wunderground v.1.15,2013-10-01 03:03:00,
2013-09-30 23:09:00,60.8,57.2,30.01,South,181,0.0,5.0,88,0.00,,,0.00,Wunderground v.1.15,2013-10-01 03:09:00,
2013-09-30 23:15:00,60.6,57.0,30.01,South,181,0.0,5.0,88,0.00,,,0.00,Wunderground v.1.15,2013-10-01 03:15:00,
2013-09-30 23:21:00,60.4,56.8,30.01,South,181,0.0,5.0,88,0.00,,,0.00,Wunderground v.1.15,2013-10-01 03:21:00,
2013-09-30 23:27:00,60.1,56.5,30.01,South,181,0.0,5.0,88,0.00,,,0.00,Wunderground v.1.15,2013-10-01 03:27:00,
2013-09-30 23:33:00,59.9,56.3,30.01,South,181,0.0,5.0,88,0.00,,,0.00,Wunderground v.1.15,2013-10-01 03:33:00,
2013-09-30 23:38:00,59.7,56.5,30.01,South,181,0.0,5.0,89,0.00,,,0.00,Wunderground v.1.15,2013-10-01 03:38:00,
2013-09-30 23:44:00,59.5,56.3,30.01,South,181,0.0,5.0,89,0.00,,,0.00,Wunderground v.1.15,2013-10-01 03:44:00,
2013-09-30 23:50:00,59.2,56.0,30.01,South,181,0.0,5.0,89,0.00,,,0.00,Wunderground v.1.15,2013-10-01 03:50:00,
2013-09-30 23:56:00,58.9,55.7,30.01,South,181,0.0,5.0,89,0.00,,,0.00,Wunderground v.1.15,2013-10-01 03:56:00,